sensor_id;sensor_type;location;lat;lon;timestamp;pressure;altitude;pressure_sealevel;temperature;humidity
37291;BME280;23175;-33.706;151.094;2023-12-22T00:00:19;99919.94;;;20.71;33.30
37291;BME280;23175;-33.706;151.094;2023-12-22T00:02:49;99919.01;;;21.11;32.96
37291;BME280;23175;-33.706;151.094;2023-12-22T00:05:19;99919.73;;;22.80;31.93
37291;BME280;23175;-33.706;151.094;2023-12-22T00:07:50;99918.65;;;23.06;32.39
37291;BME280;23175;-33.706;151.094;2023-12-22T00:10:20;99913.85;;;22.86;31.75
37291;BME280;23175;-33.706;151.094;2023-12-22T00:12:50;99912.26;;;23.52;31.21
37291;BME280;23175;-33.706;151.094;2023-12-22T00:15:20;99908.22;;;23.45;31.61
37291;BME280;23175;-33.706;151.094;2023-12-22T00:17:50;99908.07;;;23.58;31.77
37291;BME280;23175;-33.706;151.094;2023-12-22T00:20:21;99905.15;;;23.75;31.32
37291;BME280;23175;-33.706;151.094;2023-12-22T00:22:52;99905.76;;;24.24;32.07
37291;BME280;23175;-33.706;151.094;2023-12-22T00:25:22;99901.86;;;19.46;34.76
37291;BME280;23175;-33.706;151.094;2023-12-22T00:27:54;99898.98;;;22.96;32.14
37291;BME280;23175;-33.706;151.094;2023-12-22T00:30:26;99890.40;;;24.24;31.68
37291;BME280;23175;-33.706;151.094;2023-12-22T00:32:56;99890.58;;;23.47;31.23
37291;BME280;23175;-33.706;151.094;2023-12-22T00:35:29;99883.19;;;23.77;31.36
37291;BME280;23175;-33.706;151.094;2023-12-22T00:37:59;99882.10;;;23.46;30.42
37291;BME280;23175;-33.706;151.094;2023-12-22T00:40:31;99881.60;;;22.88;31.49
37291;BME280;23175;-33.706;151.094;2023-12-22T00:43:03;99875.66;;;20.65;33.93
37291;BME280;23175;-33.706;151.094;2023-12-22T00:45:33;99874.32;;;22.23;32.52
37291;BME280;23175;-33.706;151.094;2023-12-22T00:48:03;99874.56;;;23.27;30.52
37291;BME280;23175;-33.706;151.094;2023-12-22T00:50:35;99871.90;;;23.79;30.89
37291;BME280;23175;-33.706;151.094;2023-12-22T00:53:05;99862.52;;;23.69;30.10
37291;BME280;23175;-33.706;151.094;2023-12-22T00:55:35;99856.46;;;22.68;31.44
37291;BME280;23175;-33.706;151.094;2023-12-22T00:58:05;99849.63;;;21.49;32.65
37291;BME280;23175;-33.706;151.094;2023-12-22T01:00:35;99851.25;;;23.41;30.88
37291;BME280;23175;-33.706;151.094;2023-12-22T01:03:05;99848.12;;;22.82;31.07
37291;BME280;23175;-33.706;151.094;2023-12-22T01:05:35;99836.03;;;23.73;29.81
37291;BME280;23175;-33.706;151.094;2023-12-22T01:08:06;99830.52;;;23.39;32.03
37291;BME280;23175;-33.706;151.094;2023-12-22T01:10:35;99830.31;;;23.98;30.35
37291;BME280;23175;-33.706;151.094;2023-12-22T01:13:06;99833.44;;;22.81;31.39
37291;BME280;23175;-33.706;151.094;2023-12-22T01:15:36;99834.61;;;23.50;31.94
37291;BME280;23175;-33.706;151.094;2023-12-22T01:18:06;99832.79;;;22.79;31.24
37291;BME280;23175;-33.706;151.094;2023-12-22T01:20:36;99825.73;;;23.17;31.94
37291;BME280;23175;-33.706;151.094;2023-12-22T01:23:07;99817.86;;;24.23;30.62
37291;BME280;23175;-33.706;151.094;2023-12-22T01:25:38;99813.22;;;23.72;30.84
37291;BME280;23175;-33.706;151.094;2023-12-22T01:28:10;99807.91;;;23.06;31.97
37291;BME280;23175;-33.706;151.094;2023-12-22T01:30:41;99799.94;;;23.90;30.80
37291;BME280;23175;-33.706;151.094;2023-12-22T01:33:11;99796.89;;;23.81;30.59
37291;BME280;23175;-33.706;151.094;2023-12-22T01:35:42;99799.59;;;23.90;30.18
37291;BME280;23175;-33.706;151.094;2023-12-22T01:38:14;99803.34;;;22.51;32.56
37291;BME280;23175;-33.706;151.094;2023-12-22T01:40:44;99797.16;;;22.47;31.50
37291;BME280;23175;-33.706;151.094;2023-12-22T01:43:15;99787.91;;;24.18;30.17
37291;BME280;23175;-33.706;151.094;2023-12-22T01:45:45;99784.52;;;23.53;30.79
37291;BME280;23175;-33.706;151.094;2023-12-22T01:48:15;99784.35;;;23.93;31.02
37291;BME280;23175;-33.706;151.094;2023-12-22T01:50:45;99778.20;;;23.22;31.00
37291;BME280;23175;-33.706;151.094;2023-12-22T01:53:16;99769.83;;;23.42;30.58
37291;BME280;23175;-33.706;151.094;2023-12-22T01:55:47;99769.41;;;23.70;30.13
37291;BME280;23175;-33.706;151.094;2023-12-22T01:58:18;99759.45;;;23.87;30.29
37291;BME280;23175;-33.706;151.094;2023-12-22T02:00:48;99761.41;;;23.13;31.39
37291;BME280;23175;-33.706;151.094;2023-12-22T02:03:25;99749.57;;;23.82;31.25
37291;BME280;23175;-33.706;151.094;2023-12-22T02:05:56;99740.05;;;23.65;30.96
37291;BME280;23175;-33.706;151.094;2023-12-22T02:08:27;99730.94;;;24.27;30.28
37291;BME280;23175;-33.706;151.094;2023-12-22T02:10:58;99732.93;;;23.21;29.93
37291;BME280;23175;-33.706;151.094;2023-12-22T02:13:28;99728.07;;;24.36;30.26
37291;BME280;23175;-33.706;151.094;2023-12-22T02:16:06;99725.90;;;24.29;29.11
37291;BME280;23175;-33.706;151.094;2023-12-22T02:18:40;99725.88;;;22.95;31.39
37291;BME280;23175;-33.706;151.094;2023-12-22T02:21:15;99720.20;;;24.04;30.36
37291;BME280;23175;-33.706;151.094;2023-12-22T02:23:48;99720.38;;;24.18;29.55
37291;BME280;23175;-33.706;151.094;2023-12-22T02:26:25;99714.54;;;24.13;30.19
37291;BME280;23175;-33.706;151.094;2023-12-22T02:28:58;99712.81;;;24.16;29.61
37291;BME280;23175;-33.706;151.094;2023-12-22T02:31:37;99702.91;;;23.68;29.78
37291;BME280;23175;-33.706;151.094;2023-12-22T02:34:14;99707.18;;;21.92;31.92
37291;BME280;23175;-33.706;151.094;2023-12-22T02:36:49;99700.85;;;24.34;29.83
37291;BME280;23175;-33.706;151.094;2023-12-22T02:39:21;99700.40;;;21.97;32.57
37291;BME280;23175;-33.706;151.094;2023-12-22T02:41:53;99699.37;;;23.66;29.63
37291;BME280;23175;-33.706;151.094;2023-12-22T02:44:22;99704.91;;;21.92;32.62
37291;BME280;23175;-33.706;151.094;2023-12-22T02:46:53;99699.97;;;23.42;29.87
37291;BME280;23175;-33.706;151.094;2023-12-22T02:49:23;99698.18;;;23.64;29.53
37291;BME280;23175;-33.706;151.094;2023-12-22T02:51:53;99690.16;;;25.07;28.65
37291;BME280;23175;-33.706;151.094;2023-12-22T02:54:24;99693.52;;;24.23;28.68
37291;BME280;23175;-33.706;151.094;2023-12-22T02:56:54;99690.60;;;22.60;31.03
37291;BME280;23175;-33.706;151.094;2023-12-22T02:59:26;99687.06;;;24.34;29.06
37291;BME280;23175;-33.706;151.094;2023-12-22T03:01:56;99690.58;;;25.00;28.97
37291;BME280;23175;-33.706;151.094;2023-12-22T03:04:26;99683.67;;;24.19;28.29
37291;BME280;23175;-33.706;151.094;2023-12-22T03:06:56;99689.10;;;25.00;28.62
37291;BME280;23175;-33.706;151.094;2023-12-22T03:09:26;99678.71;;;24.42;28.23
37291;BME280;23175;-33.706;151.094;2023-12-22T03:11:56;99676.11;;;23.59;28.75
37291;BME280;23175;-33.706;151.094;2023-12-22T03:14:27;99674.34;;;23.52;30.09
37291;BME280;23175;-33.706;151.094;2023-12-22T03:16:57;99674.69;;;24.33;28.27
37291;BME280;23175;-33.706;151.094;2023-12-22T03:19:27;99668.00;;;23.82;29.19
37291;BME280;23175;-33.706;151.094;2023-12-22T03:21:58;99667.29;;;25.06;28.51
37291;BME280;23175;-33.706;151.094;2023-12-22T03:24:28;99659.16;;;23.42;29.40
37291;BME280;23175;-33.706;151.094;2023-12-22T03:26:58;99667.36;;;25.43;27.94
37291;BME280;23175;-33.706;151.094;2023-12-22T03:29:28;99663.72;;;24.28;27.81
37291;BME280;23175;-33.706;151.094;2023-12-22T03:31:59;99664.83;;;23.66;29.13
37291;BME280;23175;-33.706;151.094;2023-12-22T03:34:30;99666.51;;;24.96;27.17
37291;BME280;23175;-33.706;151.094;2023-12-22T03:37:00;99658.07;;;24.90;26.72
37291;BME280;23175;-33.706;151.094;2023-12-22T03:39:31;99656.96;;;24.76;27.24
37291;BME280;23175;-33.706;151.094;2023-12-22T03:42:01;99660.56;;;24.54;28.57
37291;BME280;23175;-33.706;151.094;2023-12-22T03:44:31;99662.95;;;25.20;27.55
37291;BME280;23175;-33.706;151.094;2023-12-22T03:47:01;99661.40;;;23.72;29.41
37291;BME280;23175;-33.706;151.094;2023-12-22T03:49:31;99670.05;;;23.14;29.81
37291;BME280;23175;-33.706;151.094;2023-12-22T03:52:01;99661.68;;;24.80;27.18
37291;BME280;23175;-33.706;151.094;2023-12-22T03:54:32;99657.06;;;24.13;28.14
37291;BME280;23175;-33.706;151.094;2023-12-22T03:57:02;99654.21;;;22.67;30.37
37291;BME280;23175;-33.706;151.094;2023-12-22T03:59:32;99656.40;;;24.56;28.60
37291;BME280;23175;-33.706;151.094;2023-12-22T04:02:02;99662.19;;;24.78;28.58
37291;BME280;23175;-33.706;151.094;2023-12-22T04:04:33;99666.20;;;23.57;30.51
37291;BME280;23175;-33.706;151.094;2023-12-22T04:07:07;99668.11;;;22.04;30.19
37291;BME280;23175;-33.706;151.094;2023-12-22T04:09:39;99668.36;;;24.42;28.53
37291;BME280;23175;-33.706;151.094;2023-12-22T04:12:09;99665.45;;;22.98;29.00
37291;BME280;23175;-33.706;151.094;2023-12-22T04:14:39;99666.44;;;23.29;28.94
37291;BME280;23175;-33.706;151.094;2023-12-22T04:17:10;99668.89;;;23.48;28.81
37291;BME280;23175;-33.706;151.094;2023-12-22T04:19:41;99670.61;;;23.88;29.10
37291;BME280;23175;-33.706;151.094;2023-12-22T04:22:11;99658.24;;;23.83;28.77
37291;BME280;23175;-33.706;151.094;2023-12-22T04:24:41;99652.32;;;23.78;28.03
37291;BME280;23175;-33.706;151.094;2023-12-22T04:27:13;99652.48;;;23.07;28.90
37291;BME280;23175;-33.706;151.094;2023-12-22T04:29:43;99656.44;;;23.51;27.97
37291;BME280;23175;-33.706;151.094;2023-12-22T04:32:14;99651.56;;;22.52;30.09
37291;BME280;23175;-33.706;151.094;2023-12-22T04:34:44;99655.29;;;23.05;28.85
37291;BME280;23175;-33.706;151.094;2023-12-22T04:37:15;99651.55;;;24.17;27.77
37291;BME280;23175;-33.706;151.094;2023-12-22T04:39:45;99644.77;;;24.09;27.66
37291;BME280;23175;-33.706;151.094;2023-12-22T04:42:16;99646.41;;;24.79;27.17
37291;BME280;23175;-33.706;151.094;2023-12-22T04:44:46;99648.66;;;23.69;27.52
37291;BME280;23175;-33.706;151.094;2023-12-22T04:47:17;99649.33;;;24.60;26.35
37291;BME280;23175;-33.706;151.094;2023-12-22T04:49:46;99650.14;;;24.19;26.93
37291;BME280;23175;-33.706;151.094;2023-12-22T04:52:16;99652.22;;;23.65;28.08
37291;BME280;23175;-33.706;151.094;2023-12-22T04:54:47;99650.18;;;22.00;29.48
37291;BME280;23175;-33.706;151.094;2023-12-22T04:57:17;99641.15;;;23.74;28.17
37291;BME280;23175;-33.706;151.094;2023-12-22T04:59:47;99652.42;;;23.24;28.38
37291;BME280;23175;-33.706;151.094;2023-12-22T05:02:17;99646.61;;;23.52;27.87
37291;BME280;23175;-33.706;151.094;2023-12-22T05:04:48;99651.22;;;23.35;28.01
37291;BME280;23175;-33.706;151.094;2023-12-22T05:07:19;99644.47;;;23.17;27.78
37291;BME280;23175;-33.706;151.094;2023-12-22T05:09:49;99648.09;;;23.38;28.14
37291;BME280;23175;-33.706;151.094;2023-12-22T05:12:20;99644.47;;;23.25;28.04
37291;BME280;23175;-33.706;151.094;2023-12-22T05:14:49;99635.36;;;22.93;28.62
37291;BME280;23175;-33.706;151.094;2023-12-22T05:17:21;99637.67;;;23.78;28.22
37291;BME280;23175;-33.706;151.094;2023-12-22T05:19:51;99639.29;;;23.29;28.33
37291;BME280;23175;-33.706;151.094;2023-12-22T05:22:22;99646.92;;;22.01;31.01
37291;BME280;23175;-33.706;151.094;2023-12-22T05:24:52;99640.55;;;23.85;28.88
37291;BME280;23175;-33.706;151.094;2023-12-22T05:27:22;99642.90;;;23.70;29.23
37291;BME280;23175;-33.706;151.094;2023-12-22T05:29:53;99641.33;;;24.00;29.10
37291;BME280;23175;-33.706;151.094;2023-12-22T05:32:24;99636.08;;;23.64;28.70
37291;BME280;23175;-33.706;151.094;2023-12-22T05:34:54;99633.25;;;24.05;29.04
37291;BME280;23175;-33.706;151.094;2023-12-22T05:37:25;99631.47;;;23.63;29.79
37291;BME280;23175;-33.706;151.094;2023-12-22T05:39:56;99628.01;;;23.52;29.95
37291;BME280;23175;-33.706;151.094;2023-12-22T05:42:26;99624.99;;;23.84;29.68
37291;BME280;23175;-33.706;151.094;2023-12-22T05:44:56;99625.85;;;24.48;28.48
37291;BME280;23175;-33.706;151.094;2023-12-22T05:47:27;99625.69;;;23.33;30.54
37291;BME280;23175;-33.706;151.094;2023-12-22T05:49:57;99629.56;;;22.11;31.43
37291;BME280;23175;-33.706;151.094;2023-12-22T05:52:27;99620.68;;;23.59;29.57
37291;BME280;23175;-33.706;151.094;2023-12-22T05:54:58;99620.39;;;22.57;30.62
37291;BME280;23175;-33.706;151.094;2023-12-22T05:57:28;99622.43;;;23.78;30.11
37291;BME280;23175;-33.706;151.094;2023-12-22T05:59:58;99625.60;;;23.93;30.68
37291;BME280;23175;-33.706;151.094;2023-12-22T06:02:29;99619.43;;;23.56;30.14
37291;BME280;23175;-33.706;151.094;2023-12-22T06:04:59;99627.40;;;22.74;30.27
